sensor_id;sensor_type;location;lat;lon;timestamp;P1;durP1;ratioP1;P2;durP2;ratioP2
40588;SDS011;26297;49.450;6.640;2023-04-21T00:01:28;5.03;;;4.30;;
40588;SDS011;26297;49.450;6.640;2023-04-21T00:04:34;6.13;;;4.20;;
40588;SDS011;26297;49.450;6.640;2023-04-21T00:07:40;5.40;;;4.38;;
40588;SDS011;26297;49.450;6.640;2023-04-21T00:10:45;6.28;;;4.93;;
40588;SDS011;26297;49.450;6.640;2023-04-21T00:13:55;5.50;;;4.63;;
40588;SDS011;26297;49.450;6.640;2023-04-21T00:17:04;5.70;;;4.63;;
40588;SDS011;26297;49.450;6.640;2023-04-21T00:20:08;5.07;;;4.57;;
40588;SDS011;26297;49.450;6.640;2023-04-21T00:23:16;5.45;;;4.95;;
40588;SDS011;26297;49.450;6.640;2023-04-21T00:26:20;4.90;;;4.32;;
40588;SDS011;26297;49.450;6.640;2023-04-21T00:29:30;5.82;;;5.22;;
40588;SDS011;26297;49.450;6.640;2023-04-21T00:32:36;6.22;;;5.28;;
40588;SDS011;26297;49.450;6.640;2023-04-21T00:35:40;6.13;;;5.18;;
40588;SDS011;26297;49.450;6.640;2023-04-21T00:38:44;7.03;;;5.47;;
40588;SDS011;26297;49.450;6.640;2023-04-21T00:41:48;7.05;;;5.88;;
40588;SDS011;26297;49.450;6.640;2023-04-21T00:44:57;6.82;;;5.40;;
40588;SDS011;26297;49.450;6.640;2023-04-21T00:48:01;6.03;;;5.15;;
40588;SDS011;26297;49.450;6.640;2023-04-21T00:51:13;7.32;;;5.13;;
40588;SDS011;26297;49.450;6.640;2023-04-21T00:54:17;7.18;;;5.88;;
40588;SDS011;26297;49.450;6.640;2023-04-21T00:57:26;6.90;;;5.80;;
40588;SDS011;26297;49.450;6.640;2023-04-21T01:00:36;7.00;;;5.47;;
40588;SDS011;26297;49.450;6.640;2023-04-21T01:03:40;8.60;;;5.57;;
40588;SDS011;26297;49.450;6.640;2023-04-21T01:06:43;6.55;;;5.25;;
40588;SDS011;26297;49.450;6.640;2023-04-21T01:09:47;6.07;;;5.47;;
40588;SDS011;26297;49.450;6.640;2023-04-21T01:12:51;8.45;;;5.85;;
40588;SDS011;26297;49.450;6.640;2023-04-21T01:16:00;6.60;;;5.32;;
40588;SDS011;26297;49.450;6.640;2023-04-21T01:19:09;5.20;;;4.50;;
40588;SDS011;26297;49.450;6.640;2023-04-21T01:22:13;7.07;;;6.07;;
40588;SDS011;26297;49.450;6.640;2023-04-21T01:25:20;6.68;;;5.57;;
40588;SDS011;26297;49.450;6.640;2023-04-21T01:28:29;6.13;;;5.35;;
40588;SDS011;26297;49.450;6.640;2023-04-21T01:31:35;6.68;;;5.95;;
40588;SDS011;26297;49.450;6.640;2023-04-21T01:34:45;6.43;;;5.73;;
40588;SDS011;26297;49.450;6.640;2023-04-21T01:37:52;6.78;;;5.68;;
40588;SDS011;26297;49.450;6.640;2023-04-21T01:40:58;7.63;;;5.85;;
40588;SDS011;26297;49.450;6.640;2023-04-21T01:44:01;6.22;;;5.28;;
40588;SDS011;26297;49.450;6.640;2023-04-21T01:47:05;8.10;;;6.22;;
40588;SDS011;26297;49.450;6.640;2023-04-21T01:50:09;6.93;;;5.43;;
40588;SDS011;26297;49.450;6.640;2023-04-21T01:53:12;7.20;;;5.93;;
40588;SDS011;26297;49.450;6.640;2023-04-21T01:56:16;8.75;;;6.35;;
40588;SDS011;26297;49.450;6.640;2023-04-21T01:59:20;7.55;;;6.35;;
40588;SDS011;26297;49.450;6.640;2023-04-21T02:02:24;8.18;;;6.43;;
40588;SDS011;26297;49.450;6.640;2023-04-21T02:05:29;8.80;;;5.90;;
40588;SDS011;26297;49.450;6.640;2023-04-21T02:08:34;8.20;;;6.68;;
40588;SDS011;26297;49.450;6.640;2023-04-21T02:11:40;8.00;;;6.03;;
40588;SDS011;26297;49.450;6.640;2023-04-21T02:14:44;8.93;;;6.72;;
40588;SDS011;26297;49.450;6.640;2023-04-21T02:17:50;8.80;;;6.63;;
40588;SDS011;26297;49.450;6.640;2023-04-21T02:21:02;8.20;;;6.60;;
40588;SDS011;26297;49.450;6.640;2023-04-21T02:24:11;9.20;;;6.90;;
40588;SDS011;26297;49.450;6.640;2023-04-21T02:27:20;9.30;;;6.45;;
40588;SDS011;26297;49.450;6.640;2023-04-21T02:30:29;10.20;;;6.25;;
40588;SDS011;26297;49.450;6.640;2023-04-21T02:33:35;7.82;;;6.72;;
40588;SDS011;26297;49.450;6.640;2023-04-21T02:36:41;6.60;;;5.30;;
40588;SDS011;26297;49.450;6.640;2023-04-21T02:39:47;6.38;;;5.40;;
40588;SDS011;26297;49.450;6.640;2023-04-21T02:42:56;5.85;;;5.35;;
40588;SDS011;26297;49.450;6.640;2023-04-21T02:46:07;7.43;;;5.88;;
40588;SDS011;26297;49.450;6.640;2023-04-21T02:49:11;8.52;;;6.03;;
40588;SDS011;26297;49.450;6.640;2023-04-21T02:52:24;7.70;;;5.95;;
40588;SDS011;26297;49.450;6.640;2023-04-21T02:55:32;8.90;;;6.90;;
40588;SDS011;26297;49.450;6.640;2023-04-21T02:58:39;9.65;;;7.43;;
40588;SDS011;26297;49.450;6.640;2023-04-21T03:01:48;9.77;;;6.68;;
40588;SDS011;26297;49.450;6.640;2023-04-21T03:04:52;8.68;;;6.88;;
40588;SDS011;26297;49.450;6.640;2023-04-21T03:07:59;9.50;;;7.10;;
40588;SDS011;26297;49.450;6.640;2023-04-21T03:11:03;9.57;;;7.45;;
40588;SDS011;26297;49.450;6.640;2023-04-21T03:14:12;8.98;;;7.25;;
40588;SDS011;26297;49.450;6.640;2023-04-21T03:17:24;9.48;;;7.00;;
40588;SDS011;26297;49.450;6.640;2023-04-21T03:20:32;9.52;;;6.63;;
40588;SDS011;26297;49.450;6.640;2023-04-21T03:23:38;8.00;;;6.45;;
40588;SDS011;26297;49.450;6.640;2023-04-21T03:26:44;9.50;;;6.85;;
40588;SDS011;26297;49.450;6.640;2023-04-21T03:29:50;8.45;;;6.63;;
40588;SDS011;26297;49.450;6.640;2023-04-21T03:33:04;8.95;;;6.85;;
40588;SDS011;26297;49.450;6.640;2023-04-21T03:36:07;9.63;;;7.88;;
40588;SDS011;26297;49.450;6.640;2023-04-21T03:43:51;9.43;;;7.68;;
40588;SDS011;26297;49.450;6.640;2023-04-21T03:57:24;8.30;;;6.38;;
40588;SDS011;26297;49.450;6.640;2023-04-21T04:00:34;8.82;;;6.75;;
40588;SDS011;26297;49.450;6.640;2023-04-21T04:03:48;10.38;;;7.50;;
40588;SDS011;26297;49.450;6.640;2023-04-21T04:06:51;8.63;;;6.60;;
40588;SDS011;26297;49.450;6.640;2023-04-21T04:10:04;7.97;;;6.45;;
40588;SDS011;26297;49.450;6.640;2023-04-21T04:13:07;8.30;;;6.22;;
40588;SDS011;26297;49.450;6.640;2023-04-21T04:16:11;7.43;;;6.13;;
40588;SDS011;26297;49.450;6.640;2023-04-21T04:19:14;7.85;;;6.43;;
40588;SDS011;26297;49.450;6.640;2023-04-21T04:22:18;7.55;;;5.90;;
40588;SDS011;26297;49.450;6.640;2023-04-21T04:25:22;7.80;;;6.32;;
40588;SDS011;26297;49.450;6.640;2023-04-21T04:28:28;8.35;;;6.30;;
40588;SDS011;26297;49.450;6.640;2023-04-21T04:31:44;7.93;;;6.25;;
40588;SDS011;26297;49.450;6.640;2023-04-21T04:34:48;8.55;;;6.15;;
40588;SDS011;26297;49.450;6.640;2023-04-21T04:37:54;7.53;;;5.80;;
40588;SDS011;26297;49.450;6.640;2023-04-21T04:41:16;7.03;;;5.63;;
40588;SDS011;26297;49.450;6.640;2023-04-21T04:44:27;6.82;;;5.32;;
40588;SDS011;26297;49.450;6.640;2023-04-21T04:47:40;10.60;;;6.55;;
40588;SDS011;26297;49.450;6.640;2023-04-21T04:50:47;7.55;;;5.32;;
40588;SDS011;26297;49.450;6.640;2023-04-21T04:53:56;6.43;;;5.75;;
40588;SDS011;26297;49.450;6.640;2023-04-21T04:57:04;7.10;;;5.90;;
40588;SDS011;26297;49.450;6.640;2023-04-21T05:00:35;7.18;;;5.47;;
40588;SDS011;26297;49.450;6.640;2023-04-21T05:04:03;6.82;;;6.13;;
40588;SDS011;26297;49.450;6.640;2023-04-21T05:07:12;8.05;;;5.80;;
40588;SDS011;26297;49.450;6.640;2023-04-21T05:10:17;7.72;;;5.95;;
40588;SDS011;26297;49.450;6.640;2023-04-21T05:13:23;5.68;;;5.07;;
40588;SDS011;26297;49.450;6.640;2023-04-21T05:16:30;7.88;;;5.95;;
40588;SDS011;26297;49.450;6.640;2023-04-21T05:19:37;8.02;;;5.85;;
40588;SDS011;26297;49.450;6.640;2023-04-21T05:22:40;6.85;;;5.53;;
40588;SDS011;26297;49.450;6.640;2023-04-21T05:25:54;6.15;;;5.55;;
40588;SDS011;26297;49.450;6.640;2023-04-21T05:28:57;6.72;;;5.40;;
40588;SDS011;26297;49.450;6.640;2023-04-21T05:32:04;5.95;;;5.20;;
40588;SDS011;26297;49.450;6.640;2023-04-21T05:35:07;8.43;;;5.72;;
40588;SDS011;26297;49.450;6.640;2023-04-21T05:38:13;7.38;;;5.57;;
40588;SDS011;26297;49.450;6.640;2023-04-21T05:41:23;6.82;;;5.65;;
40588;SDS011;26297;49.450;6.640;2023-04-21T05:44:29;6.13;;;4.88;;
40588;SDS011;26297;49.450;6.640;2023-04-21T05:47:35;7.25;;;5.53;;
40588;SDS011;26297;49.450;6.640;2023-04-21T05:50:41;6.37;;;5.47;;
40588;SDS011;26297;49.450;6.640;2023-04-21T05:53:45;6.40;;;5.05;;
40588;SDS011;26297;49.450;6.640;2023-04-21T05:56:49;5.93;;;4.38;;
40588;SDS011;26297;49.450;6.640;2023-04-21T05:59:52;5.10;;;4.03;;
40588;SDS011;26297;49.450;6.640;2023-04-21T06:02:56;6.25;;;4.65;;
40588;SDS011;26297;49.450;6.640;2023-04-21T06:06:00;5.55;;;4.10;;
40588;SDS011;26297;49.450;6.640;2023-04-21T06:09:08;6.28;;;5.05;;
40588;SDS011;26297;49.450;6.640;2023-04-21T06:12:11;6.90;;;4.85;;
40588;SDS011;26297;49.450;6.640;2023-04-21T06:15:15;5.85;;;4.72;;
40588;SDS011;26297;49.450;6.640;2023-04-21T06:18:27;7.93;;;5.25;;
40588;SDS011;26297;49.450;6.640;2023-04-21T06:21:41;5.47;;;4.50;;
40588;SDS011;26297;49.450;6.640;2023-04-21T06:24:45;5.53;;;4.75;;
40588;SDS011;26297;49.450;6.640;2023-04-21T06:27:51;6.30;;;4.47;;
40588;SDS011;26297;49.450;6.640;2023-04-21T06:30:55;6.53;;;5.07;;
40588;SDS011;26297;49.450;6.640;2023-04-21T06:33:59;7.63;;;6.53;;
40588;SDS011;26297;49.450;6.640;2023-04-21T06:37:02;5.88;;;4.40;;
40588;SDS011;26297;49.450;6.640;2023-04-21T06:40:06;6.70;;;4.50;;
40588;SDS011;26297;49.450;6.640;2023-04-21T06:43:09;4.22;;;3.65;;
40588;SDS011;26297;49.450;6.640;2023-04-21T06:46:13;5.28;;;4.18;;
40588;SDS011;26297;49.450;6.640;2023-04-21T06:49:17;4.93;;;4.40;;
40588;SDS011;26297;49.450;6.640;2023-04-21T06:52:21;4.20;;;3.65;;
40588;SDS011;26297;49.450;6.640;2023-04-21T06:55:25;5.75;;;4.82;;
40588;SDS011;26297;49.450;6.640;2023-04-21T06:58:31;5.05;;;3.97;;
40588;SDS011;26297;49.450;6.640;2023-04-21T07:01:34;7.05;;;4.82;;
40588;SDS011;26297;49.450;6.640;2023-04-21T07:04:37;5.50;;;4.45;;
40588;SDS011;26297;49.450;6.640;2023-04-21T07:07:41;5.43;;;4.28;;
40588;SDS011;26297;49.450;6.640;2023-04-21T07:10:52;4.82;;;3.53;;
40588;SDS011;26297;49.450;6.640;2023-04-21T07:13:55;5.55;;;4.30;;
40588;SDS011;26297;49.450;6.640;2023-04-21T07:16:59;5.95;;;3.80;;
40588;SDS011;26297;49.450;6.640;2023-04-21T07:20:05;4.55;;;4.07;;
40588;SDS011;26297;49.450;6.640;2023-04-21T07:31:21;4.97;;;4.45;;
40588;SDS011;26297;49.450;6.640;2023-04-21T07:34:24;4.13;;;3.30;;
40588;SDS011;26297;49.450;6.640;2023-04-21T07:37:30;7.78;;;5.63;;
40588;SDS011;26297;49.450;6.640;2023-04-21T07:40:56;4.93;;;4.20;;
40588;SDS011;26297;49.450;6.640;2023-04-21T07:43:59;4.45;;;3.70;;
40588;SDS011;26297;49.450;6.640;2023-04-21T07:47:03;4.13;;;3.40;;
40588;SDS011;26297;49.450;6.640;2023-04-21T07:50:23;6.43;;;4.90;;
40588;SDS011;26297;49.450;6.640;2023-04-21T07:54:18;4.50;;;4.10;;
40588;SDS011;26297;49.450;6.640;2023-04-21T07:57:24;4.63;;;3.92;;
40588;SDS011;26297;49.450;6.640;2023-04-21T08:00:35;5.32;;;3.97;;
40588;SDS011;26297;49.450;6.640;2023-04-21T08:03:42;3.47;;;2.58;;
40588;SDS011;26297;49.450;6.640;2023-04-21T08:06:45;3.95;;;3.38;;
40588;SDS011;26297;49.450;6.640;2023-04-21T08:09:49;4.47;;;3.47;;
40588;SDS011;26297;49.450;6.640;2023-04-21T08:13:02;5.32;;;4.03;;
40588;SDS011;26297;49.450;6.640;2023-04-21T08:16:07;5.03;;;3.80;;
40588;SDS011;26297;49.450;6.640;2023-04-21T08:19:10;5.28;;;4.32;;
40588;SDS011;26297;49.450;6.640;2023-04-21T08:22:14;6.53;;;4.13;;
40588;SDS011;26297;49.450;6.640;2023-04-21T08:25:17;4.30;;;3.17;;
40588;SDS011;26297;49.450;6.640;2023-04-21T08:28:21;6.57;;;4.72;;
40588;SDS011;26297;49.450;6.640;2023-04-21T08:31:24;5.38;;;4.20;;
40588;SDS011;26297;49.450;6.640;2023-04-21T08:34:28;5.28;;;3.45;;
40588;SDS011;26297;49.450;6.640;2023-04-21T08:37:31;4.82;;;4.07;;
40588;SDS011;26297;49.450;6.640;2023-04-21T08:40:37;42.40;;;9.07;;
40588;SDS011;26297;49.450;6.640;2023-04-21T08:44:10;3.22;;;2.92;;
40588;SDS011;26297;49.450;6.640;2023-04-21T08:47:14;5.32;;;4.05;;
40588;SDS011;26297;49.450;6.640;2023-04-21T08:50:17;3.95;;;2.90;;
40588;SDS011;26297;49.450;6.640;2023-04-21T08:53:21;5.43;;;3.38;;
40588;SDS011;26297;49.450;6.640;2023-04-21T08:56:43;6.82;;;3.20;;
40588;SDS011;26297;49.450;6.640;2023-04-21T09:04:26;4.10;;;2.78;;
40588;SDS011;26297;49.450;6.640;2023-04-21T09:07:40;1.00;;;0.88;;
40588;SDS011;26297;49.450;6.640;2023-04-21T09:10:58;4.40;;;3.20;;
40588;SDS011;26297;49.450;6.640;2023-04-21T09:14:26;4.03;;;2.15;;
40588;SDS011;26297;49.450;6.640;2023-04-21T09:17:45;3.25;;;2.28;;
40588;SDS011;26297;49.450;6.640;2023-04-21T09:21:17;4.63;;;4.13;;
40588;SDS011;26297;49.450;6.640;2023-04-21T09:24:27;5.57;;;4.75;;
40588;SDS011;26297;49.450;6.640;2023-04-21T09:27:37;3.58;;;2.13;;
40588;SDS011;26297;49.450;6.640;2023-04-21T09:30:41;5.13;;;2.53;;
40588;SDS011;26297;49.450;6.640;2023-04-21T09:33:49;4.20;;;3.30;;
40588;SDS011;26297;49.450;6.640;2023-04-21T09:37:02;4.00;;;3.40;;
40588;SDS011;26297;49.450;6.640;2023-04-21T09:40:06;2.95;;;2.70;;
40588;SDS011;26297;49.450;6.640;2023-04-21T09:43:10;4.15;;;3.10;;
40588;SDS011;26297;49.450;6.640;2023-04-21T09:46:15;3.42;;;2.45;;
40588;SDS011;26297;49.450;6.640;2023-04-21T09:49:20;4.05;;;3.28;;
40588;SDS011;26297;49.450;6.640;2023-04-21T09:52:26;3.47;;;3.17;;
40588;SDS011;26297;49.450;6.640;2023-04-21T09:55:31;3.58;;;2.40;;
40588;SDS011;26297;49.450;6.640;2023-04-21T09:58:39;1.35;;;1.25;;
40588;SDS011;26297;49.450;6.640;2023-04-21T10:01:48;2.72;;;1.55;;
40588;SDS011;26297;49.450;6.640;2023-04-21T10:04:54;1.95;;;1.65;;
40588;SDS011;26297;49.450;6.640;2023-04-21T10:07:58;2.78;;;2.15;;
40588;SDS011;26297;49.450;6.640;2023-04-21T10:11:01;3.05;;;2.60;;
40588;SDS011;26297;49.450;6.640;2023-04-21T10:14:07;1.85;;;1.02;;
40588;SDS011;26297;49.450;6.640;2023-04-21T10:17:11;1.50;;;1.40;;
40588;SDS011;26297;49.450;6.640;2023-04-21T10:20:14;3.67;;;3.30;;
40588;SDS011;26297;49.450;6.640;2023-04-21T10:23:50;4.00;;;2.97;;
40588;SDS011;26297;49.450;6.640;2023-04-21T10:26:49;1.85;;;1.33;;
40588;SDS011;26297;49.450;6.640;2023-04-21T10:29:52;2.17;;;1.98;;
40588;SDS011;26297;49.450;6.640;2023-04-21T10:33:03;3.40;;;2.22;;
40588;SDS011;26297;49.450;6.640;2023-04-21T10:36:16;3.50;;;2.83;;
40588;SDS011;26297;49.450;6.640;2023-04-21T10:39:27;1.23;;;1.08;;
40588;SDS011;26297;49.450;6.640;2023-04-21T10:42:33;3.90;;;3.50;;
40588;SDS011;26297;49.450;6.640;2023-04-21T10:45:38;0.50;;;0.35;;
40588;SDS011;26297;49.450;6.640;2023-04-21T10:48:50;4.78;;;3.20;;
40588;SDS011;26297;49.450;6.640;2023-04-21T10:55:27;2.08;;;1.77;;
40588;SDS011;26297;49.450;6.640;2023-04-21T10:58:31;3.45;;;3.10;;
40588;SDS011;26297;49.450;6.640;2023-04-21T11:01:39;2.70;;;2.25;;
40588;SDS011;26297;49.450;6.640;2023-04-21T11:04:43;2.88;;;2.42;;
40588;SDS011;26297;49.450;6.640;2023-04-21T11:07:49;3.35;;;2.83;;
40588;SDS011;26297;49.450;6.640;2023-04-21T11:10:54;3.40;;;2.38;;
40588;SDS011;26297;49.450;6.640;2023-04-21T11:14:01;4.78;;;3.38;;
40588;SDS011;26297;49.450;6.640;2023-04-21T11:17:09;2.30;;;1.88;;
40588;SDS011;26297;49.450;6.640;2023-04-21T11:20:15;3.92;;;2.20;;
40588;SDS011;26297;49.450;6.640;2023-04-21T11:23:19;3.45;;;3.05;;
40588;SDS011;26297;49.450;6.640;2023-04-21T11:26:35;3.47;;;2.90;;
40588;SDS011;26297;49.450;6.640;2023-04-21T11:29:44;3.13;;;2.58;;
40588;SDS011;26297;49.450;6.640;2023-04-21T11:32:54;1.80;;;1.60;;
40588;SDS011;26297;49.450;6.640;2023-04-21T11:35:58;3.13;;;2.50;;
40588;SDS011;26297;49.450;6.640;2023-04-21T11:39:08;3.78;;;3.00;;
40588;SDS011;26297;49.450;6.640;2023-04-21T11:42:17;3.35;;;2.85;;
40588;SDS011;26297;49.450;6.640;2023-04-21T11:45:39;3.15;;;2.75;;
40588;SDS011;26297;49.450;6.640;2023-04-21T11:48:43;4.47;;;3.13;;
40588;SDS011;26297;49.450;6.640;2023-04-21T11:51:47;3.60;;;2.97;;
40588;SDS011;26297;49.450;6.640;2023-04-21T11:54:53;2.05;;;1.52;;
40588;SDS011;26297;49.450;6.640;2023-04-21T11:57:59;1.67;;;1.58;;
40588;SDS011;26297;49.450;6.640;2023-04-21T12:01:06;2.53;;;2.17;;
40588;SDS011;26297;49.450;6.640;2023-04-21T12:04:17;1.33;;;0.80;;
40588;SDS011;26297;49.450;6.640;2023-04-21T12:07:22;3.17;;;1.67;;
40588;SDS011;26297;49.450;6.640;2023-04-21T12:10:26;1.70;;;1.60;;
40588;SDS011;26297;49.450;6.640;2023-04-21T12:13:31;2.83;;;2.35;;
40588;SDS011;26297;49.450;6.640;2023-04-21T12:16:35;2.38;;;1.75;;
40588;SDS011;26297;49.450;6.640;2023-04-21T12:19:40;2.38;;;2.10;;
40588;SDS011;26297;49.450;6.640;2023-04-21T12:22:44;2.08;;;1.55;;
40588;SDS011;26297;49.450;6.640;2023-04-21T12:25:48;2.60;;;1.50;;
40588;SDS011;26297;49.450;6.640;2023-04-21T12:28:53;1.40;;;1.30;;
40588;SDS011;26297;49.450;6.640;2023-04-21T12:31:56;1.95;;;1.48;;
40588;SDS011;26297;49.450;6.640;2023-04-21T12:34:59;1.45;;;1.35;;
40588;SDS011;26297;49.450;6.640;2023-04-21T12:38:03;1.30;;;1.10;;
40588;SDS011;26297;49.450;6.640;2023-04-21T12:41:07;2.00;;;1.80;;
40588;SDS011;26297;49.450;6.640;2023-04-21T12:44:10;1.58;;;1.30;;
40588;SDS011;26297;49.450;6.640;2023-04-21T12:47:13;1.13;;;1.02;;
40588;SDS011;26297;49.450;6.640;2023-04-21T12:50:20;0.80;;;0.80;;
40588;SDS011;26297;49.450;6.640;2023-04-21T12:53:23;0.57;;;0.57;;
40588;SDS011;26297;49.450;6.640;2023-04-21T12:56:26;0.70;;;0.70;;
40588;SDS011;26297;49.450;6.640;2023-04-21T12:59:31;0.90;;;0.73;;
40588;SDS011;26297;49.450;6.640;2023-04-21T13:02:57;1.75;;;0.70;;
40588;SDS011;26297;49.450;6.640;2023-04-21T13:06:03;0.93;;;0.93;;
40588;SDS011;26297;49.450;6.640;2023-04-21T13:09:07;1.05;;;0.95;;
40588;SDS011;26297;49.450;6.640;2023-04-21T13:12:10;6.32;;;1.25;;
40588;SDS011;26297;49.450;6.640;2023-04-21T13:15:16;0.88;;;0.15;;
40588;SDS011;26297;49.450;6.640;2023-04-21T13:18:19;1.50;;;0.93;;
40588;SDS011;26297;49.450;6.640;2023-04-21T13:21:24;0.40;;;0.40;;
40588;SDS011;26297;49.450;6.640;2023-04-21T13:24:28;1.02;;;0.82;;
40588;SDS011;26297;49.450;6.640;2023-04-21T13:27:32;0.80;;;0.70;;
40588;SDS011;26297;49.450;6.640;2023-04-21T13:30:35;2.97;;;0.77;;
40588;SDS011;26297;49.450;6.640;2023-04-21T13:33:39;1.05;;;0.85;;
40588;SDS011;26297;49.450;6.640;2023-04-21T13:36:46;0.70;;;0.70;;
40588;SDS011;26297;49.450;6.640;2023-04-21T13:39:50;0.28;;;0.25;;
40588;SDS011;26297;49.450;6.640;2023-04-21T13:42:53;1.25;;;1.00;;
40588;SDS011;26297;49.450;6.640;2023-04-21T13:45:57;1.25;;;0.90;;
40588;SDS011;26297;49.450;6.640;2023-04-21T13:49:00;0.60;;;0.60;;
40588;SDS011;26297;49.450;6.640;2023-04-21T13:52:04;0.40;;;0.40;;
40588;SDS011;26297;49.450;6.640;2023-04-21T13:55:07;2.50;;;0.82;;
40588;SDS011;26297;49.450;6.640;2023-04-21T13:58:10;1.00;;;0.90;;
40588;SDS011;26297;49.450;6.640;2023-04-21T14:01:14;1.30;;;0.73;;
40588;SDS011;26297;49.450;6.640;2023-04-21T14:04:17;0.80;;;0.80;;
40588;SDS011;26297;49.450;6.640;2023-04-21T14:07:22;1.02;;;0.70;;
40588;SDS011;26297;49.450;6.640;2023-04-21T14:10:28;0.80;;;0.80;;
40588;SDS011;26297;49.450;6.640;2023-04-21T14:13:49;0.70;;;0.70;;
40588;SDS011;26297;49.450;6.640;2023-04-21T14:16:55;0.95;;;0.70;;
40588;SDS011;26297;49.450;6.640;2023-04-21T14:20:08;1.45;;;1.15;;
40588;SDS011;26297;49.450;6.640;2023-04-21T14:23:12;0.60;;;0.60;;
40588;SDS011;26297;49.450;6.640;2023-04-21T14:26:16;0.70;;;0.63;;
40588;SDS011;26297;49.450;6.640;2023-04-21T14:29:20;1.20;;;0.90;;
40588;SDS011;26297;49.450;6.640;2023-04-21T14:32:24;1.17;;;0.90;;
40588;SDS011;26297;49.450;6.640;2023-04-21T14:35:36;2.60;;;1.20;;
40588;SDS011;26297;49.450;6.640;2023-04-21T14:38:46;1.10;;;0.90;;
40588;SDS011;26297;49.450;6.640;2023-04-21T14:41:49;0.68;;;0.68;;
40588;SDS011;26297;49.450;6.640;2023-04-21T14:44:56;0.65;;;0.60;;
40588;SDS011;26297;49.450;6.640;2023-04-21T14:47:58;0.98;;;0.75;;
40588;SDS011;26297;49.450;6.640;2023-04-21T14:51:02;3.15;;;1.00;;
40588;SDS011;26297;49.450;6.640;2023-04-21T14:54:06;5.88;;;1.05;;
40588;SDS011;26297;49.450;6.640;2023-04-21T14:57:12;0.90;;;0.80;;
40588;SDS011;26297;49.450;6.640;2023-04-21T15:00:18;0.85;;;0.65;;
40588;SDS011;26297;49.450;6.640;2023-04-21T15:03:22;1.08;;;0.98;;
40588;SDS011;26297;49.450;6.640;2023-04-21T15:06:26;2.15;;;0.50;;
40588;SDS011;26297;49.450;6.640;2023-04-21T15:09:33;0.32;;;0.30;;
40588;SDS011;26297;49.450;6.640;2023-04-21T15:12:37;1.65;;;0.40;;
40588;SDS011;26297;49.450;6.640;2023-04-21T15:15:41;0.30;;;0.30;;
40588;SDS011;26297;49.450;6.640;2023-04-21T15:18:44;1.00;;;0.68;;
40588;SDS011;26297;49.450;6.640;2023-04-21T15:21:48;0.85;;;0.40;;
40588;SDS011;26297;49.450;6.640;2023-04-21T15:24:51;0.60;;;0.50;;
40588;SDS011;26297;49.450;6.640;2023-04-21T15:27:55;0.98;;;0.98;;
40588;SDS011;26297;49.450;6.640;2023-04-21T15:30:58;3.58;;;1.17;;
40588;SDS011;26297;49.450;6.640;2023-04-21T15:34:02;1.77;;;1.30;;
40588;SDS011;26297;49.450;6.640;2023-04-21T15:37:07;4.75;;;1.42;;
40588;SDS011;26297;49.450;6.640;2023-04-21T15:40:11;0.60;;;0.60;;
40588;SDS011;26297;49.450;6.640;2023-04-21T15:43:18;0.60;;;0.50;;
40588;SDS011;26297;49.450;6.640;2023-04-21T15:46:21;1.13;;;0.60;;
40588;SDS011;26297;49.450;6.640;2023-04-21T15:49:25;1.75;;;0.55;;
40588;SDS011;26297;49.450;6.640;2023-04-21T15:52:28;7.13;;;0.65;;
40588;SDS011;26297;49.450;6.640;2023-04-21T15:55:34;0.40;;;0.40;;
40588;SDS011;26297;49.450;6.640;2023-04-21T15:58:38;1.45;;;0.90;;
40588;SDS011;26297;49.450;6.640;2023-04-21T16:01:41;0.80;;;0.70;;
40588;SDS011;26297;49.450;6.640;2023-04-21T16:04:44;0.75;;;0.75;;
40588;SDS011;26297;49.450;6.640;2023-04-21T16:07:48;2.08;;;0.80;;
40588;SDS011;26297;49.450;6.640;2023-04-21T16:10:54;0.80;;;0.75;;
40588;SDS011;26297;49.450;6.640;2023-04-21T16:14:18;1.60;;;0.70;;
40588;SDS011;26297;49.450;6.640;2023-04-21T16:17:25;0.60;;;0.60;;
40588;SDS011;26297;49.450;6.640;2023-04-21T16:20:49;0.50;;;0.50;;
40588;SDS011;26297;49.450;6.640;2023-04-21T16:23:59;0.40;;;0.40;;
40588;SDS011;26297;49.450;6.640;2023-04-21T16:27:03;0.73;;;0.63;;
40588;SDS011;26297;49.450;6.640;2023-04-21T16:30:07;1.13;;;0.60;;
40588;SDS011;26297;49.450;6.640;2023-04-21T16:33:16;0.60;;;0.55;;
40588;SDS011;26297;49.450;6.640;2023-04-21T16:36:20;0.88;;;0.60;;
40588;SDS011;26297;49.450;6.640;2023-04-21T16:39:30;0.68;;;0.65;;
40588;SDS011;26297;49.450;6.640;2023-04-21T16:42:51;0.45;;;0.45;;
40588;SDS011;26297;49.450;6.640;2023-04-21T16:45:55;1.48;;;0.30;;
40588;SDS011;26297;49.450;6.640;2023-04-21T16:49:01;1.08;;;0.52;;
40588;SDS011;26297;49.450;6.640;2023-04-21T16:52:07;0.60;;;0.60;;
40588;SDS011;26297;49.450;6.640;2023-04-21T16:55:12;0.57;;;0.57;;
40588;SDS011;26297;49.450;6.640;2023-04-21T16:58:18;1.67;;;0.82;;
40588;SDS011;26297;49.450;6.640;2023-04-21T17:01:30;0.90;;;0.68;;
40588;SDS011;26297;49.450;6.640;2023-04-21T17:04:34;1.25;;;0.60;;
40588;SDS011;26297;49.450;6.640;2023-04-21T17:07:41;0.52;;;0.50;;
40588;SDS011;26297;49.450;6.640;2023-04-21T17:10:50;0.50;;;0.50;;
40588;SDS011;26297;49.450;6.640;2023-04-21T17:13:53;0.88;;;0.70;;
40588;SDS011;26297;49.450;6.640;2023-04-21T17:21:18;0.47;;;0.43;;
40588;SDS011;26297;49.450;6.640;2023-04-21T17:24:21;1.15;;;0.80;;
40588;SDS011;26297;49.450;6.640;2023-04-21T17:27:30;0.68;;;0.55;;
40588;SDS011;26297;49.450;6.640;2023-04-21T17:30:39;1.00;;;0.90;;
40588;SDS011;26297;49.450;6.640;2023-04-21T17:41:23;1.13;;;0.98;;
40588;SDS011;26297;49.450;6.640;2023-04-21T17:44:35;0.80;;;0.80;;
40588;SDS011;26297;49.450;6.640;2023-04-21T17:47:45;0.85;;;0.82;;
40588;SDS011;26297;49.450;6.640;2023-04-21T17:50:51;1.20;;;0.90;;
40588;SDS011;26297;49.450;6.640;2023-04-21T17:53:58;0.38;;;0.38;;
40588;SDS011;26297;49.450;6.640;2023-04-21T18:01:13;2.00;;;0.77;;
40588;SDS011;26297;49.450;6.640;2023-04-21T18:04:54;1.45;;;0.60;;
40588;SDS011;26297;49.450;6.640;2023-04-21T18:08:00;0.88;;;0.63;;
40588;SDS011;26297;49.450;6.640;2023-04-21T18:11:18;1.20;;;1.00;;
40588;SDS011;26297;49.450;6.640;2023-04-21T18:14:26;0.80;;;0.80;;
40588;SDS011;26297;49.450;6.640;2023-04-21T18:17:30;1.95;;;1.05;;
40588;SDS011;26297;49.450;6.640;2023-04-21T18:20:41;1.77;;;0.95;;
40588;SDS011;26297;49.450;6.640;2023-04-21T18:23:59;2.13;;;0.60;;
40588;SDS011;26297;49.450;6.640;2023-04-21T19:05:53;1.42;;;1.05;;
40588;SDS011;26297;49.450;6.640;2023-04-21T19:09:08;1.05;;;0.95;;
40588;SDS011;26297;49.450;6.640;2023-04-21T19:32:32;1.67;;;1.10;;
40588;SDS011;26297;49.450;6.640;2023-04-21T19:35:41;0.88;;;0.88;;
40588;SDS011;26297;49.450;6.640;2023-04-21T19:38:47;1.00;;;0.82;;
40588;SDS011;26297;49.450;6.640;2023-04-21T19:41:51;0.75;;;0.75;;
40588;SDS011;26297;49.450;6.640;2023-04-21T19:44:55;0.90;;;0.90;;
40588;SDS011;26297;49.450;6.640;2023-04-21T19:47:58;3.42;;;1.20;;
40588;SDS011;26297;49.450;6.640;2023-04-21T19:51:08;1.17;;;1.05;;
40588;SDS011;26297;49.450;6.640;2023-04-21T19:54:11;1.20;;;1.10;;
40588;SDS011;26297;49.450;6.640;2023-04-21T19:57:18;3.92;;;1.85;;
40588;SDS011;26297;49.450;6.640;2023-04-21T20:00:25;2.25;;;1.42;;
40588;SDS011;26297;49.450;6.640;2023-04-21T20:03:39;1.98;;;1.23;;
40588;SDS011;26297;49.450;6.640;2023-04-21T20:06:42;1.73;;;1.20;;
40588;SDS011;26297;49.450;6.640;2023-04-21T20:09:48;1.73;;;1.05;;
40588;SDS011;26297;49.450;6.640;2023-04-21T20:13:01;1.83;;;1.42;;
40588;SDS011;26297;49.450;6.640;2023-04-21T20:16:07;1.08;;;1.08;;
40588;SDS011;26297;49.450;6.640;2023-04-21T20:19:11;1.00;;;0.82;;
40588;SDS011;26297;49.450;6.640;2023-04-21T20:22:14;1.23;;;1.13;;
40588;SDS011;26297;49.450;6.640;2023-04-21T20:25:27;1.90;;;1.23;;
40588;SDS011;26297;49.450;6.640;2023-04-21T20:28:33;1.85;;;1.38;;
40588;SDS011;26297;49.450;6.640;2023-04-21T20:31:39;2.17;;;1.30;;
40588;SDS011;26297;49.450;6.640;2023-04-21T20:34:43;1.95;;;1.17;;